DAL213 KDCA-KEWR
Flight info
| Callsign | DAL213 |
|---|---|
| Flight time | 0h 36m |
| Altitude | 25000 |
| Route | SOOKI6 SWANN PHLBO4 |
| Aircraft | A320/M-SDE3FGHIRWY/LB1 |
Departure
| Time | 2026-05-08 01:11 |
|---|---|
| Airport | Ronald Reagan Washington National Airport (KDCA) |
Arrival
| Time | 2026-05-08 01:47 |
|---|---|
| Airport | Newark Liberty International Airport (KEWR) |
| Time | Latitude | Longitude | Altitude | Speed | Heading |
|---|---|---|---|---|---|
| 2026-05-08 00:38 | 38.85577 | -77.04172 | 24 ft | 0 kts | 334° |
| 2026-05-08 01:00 | 38.85568 | -77.04167 | 25 ft | 4 kts | 337° |
| 2026-05-08 01:00 | 38.85543 | -77.04157 | 27 ft | 4 kts | 360° |
| 2026-05-08 01:01 | 38.85521 | -77.04165 | 24 ft | 4 kts | 53° |
| 2026-05-08 01:01 | 38.85515 | -77.04178 | 24 ft | 1 kts | 71° |
| 2026-05-08 01:01 | 38.85515 | -77.04179 | 24 ft | 0 kts | 71° |
| 2026-05-08 01:03 | 38.85515 | -77.04177 | 24 ft | 3 kts | 71° |
| 2026-05-08 01:03 | 38.85526 | -77.04134 | 27 ft | 5 kts | 72° |
| 2026-05-08 01:03 | 38.85534 | -77.04105 | 25 ft | 0 kts | 72° |
| 2026-05-08 01:05 | 38.85541 | -77.04077 | 24 ft | 6 kts | 72° |
| 2026-05-08 01:05 | 38.85574 | -77.04034 | 24 ft | 9 kts | 9° |
| 2026-05-08 01:05 | 38.85643 | -77.04042 | 24 ft | 9 kts | 355° |
| 2026-05-08 01:05 | 38.85698 | -77.04048 | 25 ft | 0 kts | 355° |
| 2026-05-08 01:07 | 38.85730 | -77.04051 | 26 ft | 12 kts | 355° |
| 2026-05-08 01:08 | 38.85816 | -77.04060 | 30 ft | 14 kts | 355° |
| 2026-05-08 01:08 | 38.85910 | -77.04065 | 25 ft | 13 kts | 7° |
| 2026-05-08 01:08 | 38.85974 | -77.04019 | 24 ft | 9 kts | 54° |
| 2026-05-08 01:08 | 38.86001 | -77.03963 | 25 ft | 1 kts | 27° |
| 2026-05-08 01:09 | 38.86008 | -77.03972 | 24 ft | 3 kts | 322° |
| 2026-05-08 01:09 | 38.86042 | -77.03983 | 26 ft | 0 kts | 26° |
| 2026-05-08 01:10 | 38.86054 | -77.03971 | 24 ft | 10 kts | 38° |
| 2026-05-08 01:10 | 38.86062 | -77.03873 | 24 ft | 10 kts | 164° |
| 2026-05-08 01:10 | 38.85923 | -77.03852 | 27 ft | 52 kts | 175° |
| 2026-05-08 01:10 | 38.85267 | -77.03792 | 23 ft | 136 kts | 175° |
| 2026-05-08 01:11 | 38.84218 | -77.03685 | 209 ft | 177 kts | 173° |
| 2026-05-08 01:11 | 38.82991 | -77.03541 | 1174 ft | 176 kts | 175° |
| 2026-05-08 01:11 | 38.81791 | -77.03312 | 2143 ft | 183 kts | 173° |
| 2026-05-08 01:11 | 38.80419 | -77.03013 | 2844 ft | 209 kts | 172° |
| 2026-05-08 01:12 | 38.78921 | -77.02674 | 3607 ft | 234 kts | 171° |
| 2026-05-08 01:12 | 38.77267 | -77.02287 | 4265 ft | 249 kts | 168° |
| 2026-05-08 01:12 | 38.75682 | -77.01298 | 4854 ft | 261 kts | 136° |
| 2026-05-08 01:12 | 38.74726 | -76.99266 | 5003 ft | 274 kts | 102° |
| 2026-05-08 01:13 | 38.74525 | -76.96825 | 5284 ft | 290 kts | 85° |
| 2026-05-08 01:13 | 38.74942 | -76.94317 | 6544 ft | 283 kts | 60° |
| 2026-05-08 01:13 | 38.75943 | -76.92191 | 7855 ft | 285 kts | 47° |
| 2026-05-08 01:13 | 38.77302 | -76.90310 | 8965 ft | 291 kts | 34° |
| 2026-05-08 01:14 | 38.78975 | -76.88833 | 10013 ft | 298 kts | 24° |
| 2026-05-08 01:14 | 38.80798 | -76.87401 | 10718 ft | 321 kts | 24° |
| 2026-05-08 01:14 | 38.82774 | -76.85866 | 11307 ft | 346 kts | 24° |
| 2026-05-08 01:14 | 38.84903 | -76.84217 | 11949 ft | 367 kts | 25° |
| 2026-05-08 01:15 | 38.87046 | -76.82296 | 12788 ft | 385 kts | 36° |
| 2026-05-08 01:15 | 38.88387 | -76.80740 | 13395 ft | 393 kts | 38° |
| 2026-05-08 01:15 | 38.91114 | -76.77547 | 14537 ft | 405 kts | 38° |
| 2026-05-08 01:15 | 38.92528 | -76.75896 | 15125 ft | 410 kts | 37° |
| 2026-05-08 01:16 | 38.95353 | -76.72611 | 16297 ft | 417 kts | 37° |
| 2026-05-08 01:16 | 38.96817 | -76.70916 | 16874 ft | 421 kts | 37° |
| 2026-05-08 01:16 | 38.99010 | -76.68384 | 17728 ft | 426 kts | 37° |
| 2026-05-08 01:16 | 39.01233 | -76.65808 | 18508 ft | 432 kts | 37° |
| 2026-05-08 01:17 | 39.03435 | -76.63153 | 19227 ft | 439 kts | 38° |
| 2026-05-08 01:17 | 39.05643 | -76.60364 | 19867 ft | 447 kts | 39° |
| 2026-05-08 01:17 | 39.07812 | -76.57540 | 20473 ft | 454 kts | 42° |
| 2026-05-08 01:17 | 39.09811 | -76.54277 | 20808 ft | 474 kts | 53° |
| 2026-05-08 01:18 | 39.11392 | -76.50447 | 20903 ft | 494 kts | 66° |
| 2026-05-08 01:18 | 39.12440 | -76.46278 | 20911 ft | 483 kts | 77° |
| 2026-05-08 01:18 | 39.12984 | -76.42064 | 20925 ft | 473 kts | 83° |
| 2026-05-08 01:18 | 39.13452 | -76.37906 | 20927 ft | 470 kts | 83° |
| 2026-05-08 01:19 | 39.13925 | -76.33716 | 20926 ft | 470 kts | 83° |
| 2026-05-08 01:19 | 39.14521 | -76.29584 | 20923 ft | 469 kts | 75° |
| 2026-05-08 01:19 | 39.15584 | -76.25619 | 20923 ft | 468 kts | 64° |
| 2026-05-08 01:19 | 39.17105 | -76.21916 | 20923 ft | 465 kts | 54° |
| 2026-05-08 01:20 | 39.19020 | -76.18605 | 20918 ft | 460 kts | 43° |
| 2026-05-08 01:20 | 39.21284 | -76.15719 | 20940 ft | 455 kts | 36° |
| 2026-05-08 01:20 | 39.23631 | -76.12993 | 20899 ft | 455 kts | 36° |
| 2026-05-08 01:20 | 39.25987 | -76.10240 | 20917 ft | 455 kts | 37° |
| 2026-05-08 01:21 | 39.28328 | -76.07491 | 20909 ft | 455 kts | 37° |
| 2026-05-08 01:21 | 39.30683 | -76.04719 | 20909 ft | 455 kts | 37° |
| 2026-05-08 01:21 | 39.32988 | -76.02005 | 20906 ft | 455 kts | 37° |
| 2026-05-08 01:21 | 39.35332 | -75.99241 | 20903 ft | 455 kts | 37° |
| 2026-05-08 01:22 | 39.37670 | -75.96480 | 20896 ft | 455 kts | 37° |
| 2026-05-08 01:22 | 39.40009 | -75.93723 | 20935 ft | 455 kts | 37° |
| 2026-05-08 01:22 | 39.42242 | -75.91086 | 20887 ft | 456 kts | 37° |
| 2026-05-08 01:22 | 39.44580 | -75.88314 | 20895 ft | 456 kts | 37° |
| 2026-05-08 01:23 | 39.46914 | -75.85549 | 20900 ft | 456 kts | 37° |
| 2026-05-08 01:23 | 39.49268 | -75.82760 | 20898 ft | 456 kts | 37° |
| 2026-05-08 01:23 | 39.51599 | -75.79995 | 20883 ft | 456 kts | 37° |
| 2026-05-08 01:23 | 39.53935 | -75.77225 | 20881 ft | 456 kts | 37° |
| 2026-05-08 01:24 | 39.56275 | -75.74451 | 20896 ft | 456 kts | 37° |
| 2026-05-08 01:24 | 39.58609 | -75.71678 | 20896 ft | 456 kts | 37° |
| 2026-05-08 01:24 | 39.60954 | -75.68889 | 20892 ft | 456 kts | 37° |
| 2026-05-08 01:24 | 39.63300 | -75.66099 | 20893 ft | 456 kts | 37° |
| 2026-05-08 01:25 | 39.65630 | -75.63327 | 20825 ft | 451 kts | 37° |
| 2026-05-08 01:25 | 39.67892 | -75.60627 | 20563 ft | 433 kts | 37° |
| 2026-05-08 01:25 | 39.70027 | -75.58055 | 20301 ft | 412 kts | 37° |
| 2026-05-08 01:25 | 39.72125 | -75.55520 | 19870 ft | 400 kts | 37° |
| 2026-05-08 01:26 | 39.74156 | -75.53072 | 19429 ft | 396 kts | 37° |
| 2026-05-08 01:26 | 39.76173 | -75.50645 | 18983 ft | 396 kts | 37° |
| 2026-05-08 01:26 | 39.78204 | -75.48203 | 18568 ft | 396 kts | 38° |
| 2026-05-08 01:26 | 39.80192 | -75.45810 | 18150 ft | 395 kts | 38° |
| 2026-05-08 01:27 | 39.82214 | -75.43374 | 17660 ft | 395 kts | 38° |
| 2026-05-08 01:27 | 39.84234 | -75.40934 | 17164 ft | 395 kts | 38° |
| 2026-05-08 01:27 | 39.86245 | -75.38499 | 16735 ft | 390 kts | 38° |
| 2026-05-08 01:27 | 39.88187 | -75.36135 | 16345 ft | 377 kts | 38° |
| 2026-05-08 01:28 | 39.90084 | -75.33824 | 15965 ft | 371 kts | 38° |
| 2026-05-08 01:28 | 39.91968 | -75.31536 | 15585 ft | 368 kts | 38° |
| 2026-05-08 01:28 | 39.93842 | -75.29265 | 15220 ft | 368 kts | 38° |
| 2026-05-08 01:28 | 39.95683 | -75.27035 | 14861 ft | 366 kts | 38° |
| 2026-05-08 01:29 | 39.97522 | -75.24802 | 14504 ft | 355 kts | 38° |
| 2026-05-08 01:29 | 39.99304 | -75.22631 | 14142 ft | 347 kts | 38° |
| 2026-05-08 01:29 | 40.01065 | -75.20486 | 13788 ft | 347 kts | 38° |
| 2026-05-08 01:29 | 40.02834 | -75.18337 | 13398 ft | 347 kts | 38° |
| 2026-05-08 01:30 | 40.04599 | -75.16191 | 12988 ft | 347 kts | 38° |
| 2026-05-08 01:30 | 40.06370 | -75.14029 | 12599 ft | 346 kts | 38° |
| 2026-05-08 01:30 | 40.08096 | -75.11911 | 12213 ft | 334 kts | 38° |
| 2026-05-08 01:30 | 40.09765 | -75.09857 | 11816 ft | 323 kts | 38° |
| 2026-05-08 01:31 | 40.11368 | -75.07890 | 11447 ft | 315 kts | 38° |
| 2026-05-08 01:31 | 40.12953 | -75.05951 | 11086 ft | 309 kts | 38° |
| 2026-05-08 01:31 | 40.14502 | -75.04056 | 11013 ft | 308 kts | 38° |
| 2026-05-08 01:31 | 40.16088 | -75.02117 | 10764 ft | 305 kts | 38° |
| 2026-05-08 01:32 | 40.17605 | -75.00260 | 10470 ft | 300 kts | 38° |
| 2026-05-08 01:32 | 40.19112 | -74.98411 | 10156 ft | 296 kts | 38° |
| 2026-05-08 01:32 | 40.20625 | -74.96555 | 9861 ft | 292 kts | 39° |
| 2026-05-08 01:32 | 40.22086 | -74.94761 | 9557 ft | 290 kts | 39° |
| 2026-05-08 01:33 | 40.23536 | -74.92975 | 9245 ft | 286 kts | 39° |
| 2026-05-08 01:33 | 40.24979 | -74.91197 | 8930 ft | 283 kts | 39° |
| 2026-05-08 01:33 | 40.26386 | -74.89391 | 8597 ft | 282 kts | 42° |
| 2026-05-08 01:33 | 40.27736 | -74.87529 | 8284 ft | 280 kts | 44° |
| 2026-05-08 01:34 | 40.29050 | -74.85663 | 8041 ft | 277 kts | 44° |
| 2026-05-08 01:34 | 40.30351 | -74.83800 | 7993 ft | 277 kts | 44° |
| 2026-05-08 01:34 | 40.31488 | -74.81778 | 7957 ft | 281 kts | 58° |
| 2026-05-08 01:34 | 40.32431 | -74.79542 | 7576 ft | 274 kts | 59° |
| 2026-05-08 01:35 | 40.33320 | -74.77404 | 7198 ft | 263 kts | 59° |
| 2026-05-08 01:35 | 40.34175 | -74.75337 | 6818 ft | 254 kts | 60° |
| 2026-05-08 01:35 | 40.35013 | -74.73310 | 6323 ft | 251 kts | 60° |
| 2026-05-08 01:35 | 40.35833 | -74.71318 | 5807 ft | 248 kts | 60° |
| 2026-05-08 01:36 | 40.36650 | -74.69332 | 5285 ft | 246 kts | 60° |
| 2026-05-08 01:36 | 40.37455 | -74.67379 | 5003 ft | 235 kts | 60° |
| 2026-05-08 01:36 | 40.38211 | -74.65551 | 4984 ft | 224 kts | 60° |
| 2026-05-08 01:36 | 40.38939 | -74.63784 | 4992 ft | 222 kts | 60° |
| 2026-05-08 01:37 | 40.39683 | -74.61981 | 4994 ft | 221 kts | 60° |
| 2026-05-08 01:37 | 40.40408 | -74.60219 | 4990 ft | 221 kts | 60° |
| 2026-05-08 01:37 | 40.41143 | -74.58432 | 4991 ft | 221 kts | 60° |
| 2026-05-08 01:37 | 40.41861 | -74.56689 | 4990 ft | 221 kts | 60° |
| 2026-05-08 01:38 | 40.42590 | -74.54919 | 4993 ft | 221 kts | 60° |
| 2026-05-08 01:38 | 40.43298 | -74.53197 | 4990 ft | 221 kts | 60° |
| 2026-05-08 01:38 | 40.44001 | -74.51484 | 4989 ft | 221 kts | 60° |
| 2026-05-08 01:38 | 40.44736 | -74.49689 | 4898 ft | 223 kts | 60° |
| 2026-05-08 01:39 | 40.45481 | -74.47866 | 4504 ft | 225 kts | 60° |
| 2026-05-08 01:39 | 40.46207 | -74.46091 | 4126 ft | 221 kts | 60° |
| 2026-05-08 01:39 | 40.46927 | -74.44332 | 3736 ft | 217 kts | 60° |
| 2026-05-08 01:39 | 40.47630 | -74.42616 | 3406 ft | 209 kts | 60° |
| 2026-05-08 01:40 | 40.48308 | -74.40961 | 3040 ft | 201 kts | 60° |
| 2026-05-08 01:40 | 40.48824 | -74.39310 | 3008 ft | 195 kts | 72° |
| 2026-05-08 01:40 | 40.49212 | -74.37639 | 2995 ft | 193 kts | 71° |
| 2026-05-08 01:40 | 40.49605 | -74.35968 | 3023 ft | 192 kts | 72° |
| 2026-05-08 01:41 | 40.49992 | -74.34325 | 3018 ft | 189 kts | 71° |
| 2026-05-08 01:41 | 40.50384 | -74.32670 | 2998 ft | 188 kts | 71° |
| 2026-05-08 01:41 | 40.50771 | -74.31040 | 2925 ft | 188 kts | 71° |
| 2026-05-08 01:41 | 40.51162 | -74.29399 | 2836 ft | 183 kts | 68° |
| 2026-05-08 01:42 | 40.51767 | -74.28010 | 2834 ft | 173 kts | 49° |
| 2026-05-08 01:42 | 40.52668 | -74.27004 | 2825 ft | 168 kts | 30° |
| 2026-05-08 01:42 | 40.53672 | -74.26352 | 2812 ft | 153 kts | 25° |
| 2026-05-08 01:42 | 40.54603 | -74.25764 | 2797 ft | 145 kts | 25° |
| 2026-05-08 01:43 | 40.55506 | -74.25193 | 2683 ft | 142 kts | 25° |
| 2026-05-08 01:43 | 40.56362 | -74.24651 | 2538 ft | 140 kts | 25° |
| 2026-05-08 01:43 | 40.57245 | -74.24092 | 2363 ft | 139 kts | 25° |
| 2026-05-08 01:43 | 40.58129 | -74.23533 | 2179 ft | 138 kts | 25° |
| 2026-05-08 01:44 | 40.58981 | -74.22993 | 2007 ft | 137 kts | 25° |
| 2026-05-08 01:44 | 40.59841 | -74.22448 | 1819 ft | 137 kts | 25° |
| 2026-05-08 01:44 | 40.60700 | -74.21904 | 1638 ft | 136 kts | 25° |
| 2026-05-08 01:44 | 40.61551 | -74.21365 | 1453 ft | 136 kts | 26° |
| 2026-05-08 01:45 | 40.62404 | -74.20824 | 1271 ft | 137 kts | 26° |
| 2026-05-08 01:45 | 40.63238 | -74.20296 | 1085 ft | 137 kts | 25° |
| 2026-05-08 01:45 | 40.64097 | -74.19746 | 925 ft | 137 kts | 26° |
| 2026-05-08 01:45 | 40.64940 | -74.19216 | 732 ft | 137 kts | 25° |
| 2026-05-08 01:46 | 40.65798 | -74.18670 | 539 ft | 134 kts | 26° |
| 2026-05-08 01:46 | 40.66633 | -74.18130 | 408 ft | 135 kts | 25° |
| 2026-05-08 01:46 | 40.67470 | -74.17609 | 207 ft | 134 kts | 25° |
| 2026-05-08 01:46 | 40.68281 | -74.17077 | 47 ft | 122 kts | 22° |
| 2026-05-08 01:47 | 40.68948 | -74.16671 | 23 ft | 84 kts | 25° |
| 2026-05-08 01:47 | 40.69353 | -74.16416 | 26 ft | 50 kts | 26° |
| 2026-05-08 01:47 | 40.69580 | -74.16287 | 23 ft | 27 kts | 12° |
| 2026-05-08 01:48 | 40.69740 | -74.16372 | 22 ft | 6 kts | 256° |
| 2026-05-08 01:48 | 40.69727 | -74.16390 | 24 ft | 0 kts | 213° |
| 2026-05-08 01:50 | 40.69724 | -74.16414 | 22 ft | 5 kts | 279° |
| 2026-05-08 01:51 | 40.69746 | -74.16473 | 21 ft | 13 kts | 297° |
| 2026-05-08 01:51 | 40.69785 | -74.16570 | 20 ft | 18 kts | 297° |
| 2026-05-08 01:51 | 40.69810 | -74.16641 | 21 ft | 3 kts | 285° |
| 2026-05-08 01:51 | 40.69807 | -74.16679 | 21 ft | 10 kts | 256° |
| 2026-05-08 01:52 | 40.69778 | -74.16768 | 22 ft | 14 kts | 245° |
| 2026-05-08 01:52 | 40.69721 | -74.16837 | 22 ft | 12 kts | 202° |
| 2026-05-08 01:52 | 40.69659 | -74.16889 | 22 ft | 10 kts | 234° |
| 2026-05-08 01:52 | 40.69631 | -74.16953 | 22 ft | 0 kts | 246° |
| 2026-05-08 01:53 | 40.69626 | -74.16967 | 24 ft | 6 kts | 247° |
| 2026-05-08 01:53 | 40.69597 | -74.16998 | 22 ft | 5 kts | 176° |
| 2026-05-08 01:53 | 40.69574 | -74.16997 | 22 ft | 11 kts | 176° |
| 2026-05-08 01:53 | 40.69505 | -74.16982 | 22 ft | 6 kts | 171° |
| 2026-05-08 01:54 | 40.69498 | -74.16982 | 22 ft | 5 kts | 175° |
| 2026-05-08 01:54 | 40.69465 | -74.16990 | 22 ft | 11 kts | 204° |
| 2026-05-08 01:54 | 40.69377 | -74.17060 | 22 ft | 13 kts | 207° |
| 2026-05-08 01:54 | 40.69293 | -74.17114 | 22 ft | 15 kts | 205° |
| 2026-05-08 01:55 | 40.69184 | -74.17183 | 22 ft | 19 kts | 205° |
| 2026-05-08 01:55 | 40.69069 | -74.17254 | 23 ft | 18 kts | 205° |
| 2026-05-08 01:55 | 40.68956 | -74.17327 | 24 ft | 17 kts | 207° |
| 2026-05-08 01:55 | 40.68852 | -74.17395 | 22 ft | 16 kts | 204° |
| 2026-05-08 01:56 | 40.68755 | -74.17453 | 22 ft | 17 kts | 205° |
| 2026-05-08 01:56 | 40.68674 | -74.17503 | 22 ft | 20 kts | 205° |
| 2026-05-08 01:56 | 40.68555 | -74.17579 | 22 ft | 18 kts | 206° |
| 2026-05-08 01:56 | 40.68411 | -74.17672 | 22 ft | 16 kts | 206° |
| 2026-05-08 01:57 | 40.68342 | -74.17717 | 22 ft | 13 kts | 206° |
| 2026-05-08 01:57 | 40.68325 | -74.17735 | 24 ft | 11 kts | 230° |
| 2026-05-08 01:57 | 40.68329 | -74.17819 | 22 ft | 12 kts | 297° |
| 2026-05-08 01:57 | 40.68376 | -74.17922 | 22 ft | 16 kts | 300° |
| 2026-05-08 01:58 | 40.68434 | -74.18070 | 22 ft | 19 kts | 296° |
| 2026-05-08 01:58 | 40.68469 | -74.18177 | 22 ft | 4 kts | 241° |
| 2026-05-08 01:58 | 40.68463 | -74.18188 | 22 ft | 4 kts | 238° |
| 2026-05-08 01:58 | 40.68447 | -74.18212 | 22 ft | 3 kts | 222° |
| 2026-05-08 01:59 | 40.68434 | -74.18224 | 22 ft | 2 kts | 215° |
| 2026-05-08 01:59 | 40.68427 | -74.18231 | 22 ft | 1 kts | 215° |
| 2026-05-08 01:59 | 40.68423 | -74.18235 | 24 ft | 2 kts | 215° |
| 2026-05-08 01:59 | 40.68422 | -74.18235 | 23 ft | 0 kts | 215° |